Time;durP1;ratioP1;P1;durP2;ratioP2;P2;SDS_P1;SDS_P2;PMS_P1;PMS_P2;Temp;Humidity;BMP_temperature;BMP_pressure;BME280_temperature;BME280_humidity;BME280_pressure;Samples;Min_cycle;Max_cycle;Signal;HPM_P1;HPM_P2
2022/06/06 00:01:14;;;;;;;0.77;0.77;;;15.20;99.90;;;;;;5096538;28;20620;-83
2022/06/06 00:03:41;;;;;;;0.77;0.77;;;15.10;99.90;;;;;;5109017;27;20623;-84
2022/06/06 00:06:12;;;;;;;1.53;0.90;;;15.00;99.90;;;;;;5093082;28;21142;-83
2022/06/06 00:08:40;;;;;;;1.90;1.03;;;15.00;99.90;;;;;;5088395;28;21063;-84
2022/06/06 00:11:09;;;;;;;1.63;1.13;;;15.10;99.90;;;;;;5095738;28;20620;-84
2022/06/06 00:13:40;;;;;;;2.60;1.10;;;15.00;99.90;;;;;;5107697;28;20634;-84
2022/06/06 00:16:09;;;;;;;1.60;1.10;;;15.10;99.90;;;;;;5106968;28;20974;-83
2022/06/06 00:18:38;;;;;;;1.20;1.10;;;15.00;99.90;;;;;;5097282;28;20718;-83
2022/06/06 00:21:08;;;;;;;1.20;1.10;;;15.10;99.90;;;;;;5089442;28;20641;-85
2022/06/06 00:23:37;;;;;;;1.50;1.40;;;15.00;99.90;;;;;;5106205;27;20626;-83
2022/06/06 00:26:07;;;;;;;0.80;0.80;;;15.00;99.90;;;;;;5092824;28;20655;-83
2022/06/06 00:28:35;;;;;;;1.50;1.40;;;14.90;99.90;;;;;;5105908;28;20632;-83
2022/06/06 00:36:35;;;;;;;1.07;1.03;;;14.80;99.90;;;;;;5107870;28;20675;-83
2022/06/06 00:39:05;;;;;;;1.07;0.93;;;14.70;99.90;;;;;;5108162;28;20731;-83
2022/06/06 00:41:37;;;;;;;1.00;1.00;;;14.70;99.90;;;;;;5104635;27;20979;-83
2022/06/06 00:44:08;;;;;;;1.03;1.03;;;14.50;99.90;;;;;;5095064;28;20630;-83
2022/06/06 00:46:41;;;;;;;0.60;0.60;;;14.60;99.90;;;;;;5100716;28;20978;-83
2022/06/06 00:49:13;;;;;;;0.80;0.80;;;14.50;99.90;;;;;;5088481;28;21206;-84
2022/06/06 00:51:41;;;;;;;1.30;1.10;;;14.40;99.90;;;;;;5096958;28;20617;-83
2022/06/06 00:54:10;;;;;;;1.27;1.20;;;14.70;99.90;;;;;;5095157;28;21201;-83
2022/06/06 00:56:43;;;;;;;1.10;1.10;;;14.70;99.90;;;;;;5102088;28;21190;-82
2022/06/06 00:59:13;;;;;;;1.27;0.80;;;14.60;99.90;;;;;;5088363;28;20617;-84
2022/06/06 01:01:43;;;;;;;0.93;0.93;;;14.70;99.90;;;;;;5088436;28;20674;-84
2022/06/06 01:04:13;;;;;;;1.10;0.80;;;14.70;99.90;;;;;;5097110;28;20727;-84
2022/06/06 01:06:44;;;;;;;1.40;1.30;;;14.60;99.90;;;;;;5091498;28;20621;-84
2022/06/06 01:09:12;;;;;;;0.90;0.80;;;14.80;99.90;;;;;;5096122;28;20631;-84
2022/06/06 01:11:48;;;;;;;1.17;1.17;;;14.70;99.90;;;;;;5099290;28;20624;-84
2022/06/06 01:14:20;;;;;;;1.03;1.00;;;14.70;99.90;;;;;;5088468;28;20628;-84
2022/06/06 01:16:53;;;;;;;1.00;0.90;;;14.80;99.90;;;;;;5092612;28;20684;-84
2022/06/06 01:19:51;;;;;;;1.10;0.90;;;14.70;99.90;;;;;;5091199;28;20681;-85
2022/06/06 01:22:45;;;;;;;3.87;3.57;;;14.80;99.90;;;;;;5087735;28;20635;-84
2022/06/06 01:25:37;;;;;;;1.77;1.50;;;14.80;99.90;;;;;;5091165;28;21511;-84
2022/06/06 01:28:15;;;;;;;1.30;1.20;;;14.80;99.90;;;;;;5099136;28;20654;-83
2022/06/06 01:30:50;;;;;;;0.90;0.90;;;14.70;99.90;;;;;;5088039;28;21089;-84
2022/06/06 01:33:18;;;;;;;0.87;0.70;;;14.80;99.90;;;;;;5087641;28;20620;-84
2022/06/06 01:35:49;;;;;;;1.90;1.77;;;14.60;99.90;;;;;;5087077;28;20751;-83
2022/06/06 01:38:21;;;;;;;1.37;1.17;;;14.50;99.90;;;;;;5087936;28;20620;-84
2022/06/06 01:40:59;;;;;;;1.50;1.13;;;14.50;99.90;;;;;;5095795;28;21252;-83
2022/06/06 01:43:36;;;;;;;1.43;1.33;;;14.60;99.90;;;;;;5094485;28;20620;-83
2022/06/06 01:46:09;;;;;;;3.50;1.40;;;14.50;99.90;;;;;;5108935;27;20676;-84
2022/06/06 01:48:40;;;;;;;1.23;1.13;;;14.50;99.90;;;;;;5094164;28;20973;-84
2022/06/06 01:51:09;;;;;;;1.17;1.00;;;14.40;99.90;;;;;;5109716;28;20607;-83
2022/06/06 01:53:40;;;;;;;1.10;0.83;;;14.40;99.90;;;;;;5091961;28;20715;-84
2022/06/06 01:56:10;;;;;;;1.07;0.80;;;14.30;99.90;;;;;;5099542;28;20669;-84
2022/06/06 01:58:39;;;;;;;1.40;1.30;;;14.30;99.90;;;;;;5109666;28;20703;-84
2022/06/06 02:01:06;;;;;;;0.90;0.77;;;14.30;99.90;;;;;;5107238;28;20640;-83
2022/06/06 02:03:34;;;;;;;1.70;1.60;;;14.30;99.90;;;;;;5104098;27;20621;-84
2022/06/06 02:06:03;;;;;;;1.40;1.30;;;14.20;99.90;;;;;;5091289;28;20660;-84
2022/06/06 02:08:31;;;;;;;1.47;1.37;;;14.30;99.90;;;;;;5097988;28;20629;-84
2022/06/06 02:10:58;;;;;;;1.87;1.50;;;14.40;99.90;;;;;;5101383;28;20644;-84
2022/06/06 02:13:25;;;;;;;1.30;1.20;;;14.50;99.90;;;;;;5110036;27;20708;-84
2022/06/06 02:15:54;;;;;;;1.07;0.93;;;14.50;99.90;;;;;;5109367;28;20629;-83
2022/06/06 02:18:22;;;;;;;1.00;0.90;;;14.50;99.90;;;;;;5109528;28;20623;-84
2022/06/06 02:20:49;;;;;;;1.93;1.27;;;14.40;99.90;;;;;;5094863;28;21132;-85
2022/06/06 02:23:17;;;;;;;1.37;1.27;;;;;;;;;;5108225;28;20622;-84
2022/06/06 02:25:44;;;;;;;1.27;1.13;;;14.30;99.90;;;;;;5104494;28;20727;-84
2022/06/06 02:28:10;;;;;;;1.03;0.93;;;14.30;99.90;;;;;;5090842;28;21238;-85
2022/06/06 02:30:39;;;;;;;1.60;1.50;;;14.10;99.90;;;;;;5106081;28;21173;-83
2022/06/06 02:33:08;;;;;;;0.80;0.80;;;14.30;99.90;;;;;;5090896;28;21219;-83
2022/06/06 02:35:37;;;;;;;1.93;1.80;;;14.20;99.90;;;;;;5107499;28;20718;-84
2022/06/06 02:38:04;;;;;;;1.27;1.10;;;14.20;99.90;;;;;;5111367;28;20711;-83
2022/06/06 02:40:31;;;;;;;1.43;1.10;;;14.10;99.90;;;;;;5109539;28;20663;-83
2022/06/06 02:42:59;;;;;;;1.53;1.43;;;14.20;99.90;;;;;;5109206;28;20631;-84
2022/06/06 02:45:26;;;;;;;1.37;1.27;;;14.20;99.90;;;;;;5091850;28;20631;-85
2022/06/06 02:47:55;;;;;;;1.30;1.20;;;14.10;99.90;;;;;;5109029;28;20658;-84
2022/06/06 02:50:25;;;;;;;1.90;1.47;;;14.10;99.90;;;;;;5093892;28;20635;-83
2022/06/06 02:52:53;;;;;;;2.13;1.37;;;14.00;99.90;;;;;;5106405;28;20623;-84
2022/06/06 02:55:20;;;;;;;1.30;1.20;;;14.00;99.90;;;;;;5104191;28;20697;-84
2022/06/06 02:57:50;;;;;;;1.83;1.73;;;14.00;99.90;;;;;;5090250;28;20660;-83
2022/06/06 03:00:20;;;;;;;1.43;1.33;;;14.00;99.90;;;;;;5104596;28;20647;-83
2022/06/06 03:02:47;;;;;;;2.17;1.53;;;14.00;99.90;;;;;;5107141;28;20652;-84
2022/06/06 03:05:16;;;;;;;1.70;1.60;;;14.00;99.90;;;;;;5097393;28;21185;-84
2022/06/06 03:08:02;;;;;;;1.33;1.23;;;13.90;99.90;;;;;;5106601;28;21202;-83
2022/06/06 03:10:41;;;;;;;1.83;1.20;;;13.90;99.90;;;;;;5090376;28;20686;-84
2022/06/06 03:13:24;;;;;;;1.13;1.00;;;13.90;99.90;;;;;;5091324;28;20623;-84
2022/06/06 03:22:16;;;;;;;2.73;2.47;;;14.00;99.90;;;;;;5089771;28;20645;-85
2022/06/06 03:24:56;;;;;;;1.50;1.40;;;14.00;99.90;;;;;;5089471;28;20608;-84
2022/06/06 03:27:30;;;;;;;1.10;1.00;;;13.90;99.90;;;;;;5089042;28;20624;-85
2022/06/06 03:30:04;;;;;;;1.90;1.20;;;13.90;99.90;;;;;;5089905;28;20631;-84
2022/06/06 03:32:44;;;;;;;1.40;1.30;;;13.90;99.90;;;;;;5089651;28;20663;-85
2022/06/06 03:35:21;;;;;;;1.87;1.77;;;14.10;99.90;;;;;;5088812;28;21228;-83
2022/06/06 03:37:58;;;;;;;1.67;1.37;;;14.00;99.90;;;;;;5103402;28;20650;-85
2022/06/06 03:40:31;;;;;;;0.90;0.90;;;14.00;99.90;;;;;;5109417;28;20655;-84
2022/06/06 03:43:05;;;;;;;3.47;1.77;;;14.00;99.90;;;;;;5089861;28;20626;-85
2022/06/06 03:45:41;;;;;;;2.63;1.20;;;14.00;99.90;;;;;;5103671;28;20704;-83
2022/06/06 03:48:19;;;;;;;2.53;2.33;;;14.00;99.90;;;;;;5103772;28;20668;-84
2022/06/06 03:50:51;;;;;;;1.27;1.17;;;14.00;99.90;;;;;;5109975;28;20663;-84
2022/06/06 03:53:23;;;;;;;1.33;1.23;;;13.90;99.90;;;;;;5100503;28;20612;-84
2022/06/06 03:56:05;;;;;;;1.67;1.57;;;13.90;99.90;;;;;;5101380;28;21185;-84
2022/06/06 03:58:34;;;;;;;1.80;1.70;;;13.90;99.90;;;;;;5092556;28;21203;-85
2022/06/06 04:01:03;;;;;;;1.13;1.03;;;13.90;99.90;;;;;;5100701;28;20860;-84
2022/06/06 04:03:33;;;;;;;1.33;1.20;;;13.80;99.90;;;;;;5102608;28;20722;-83
2022/06/06 04:06:02;;;;;;;2.60;1.57;;;13.80;99.90;;;;;;5108407;28;20640;-84
2022/06/06 04:08:32;;;;;;;2.57;1.57;;;13.80;99.90;;;;;;5091400;28;21248;-84
2022/06/06 04:11:26;;;;;;;1.37;1.27;;;13.80;99.90;;;;;;5092763;28;20621;-84
2022/06/06 04:14:02;;;;;;;1.10;1.00;;;13.80;99.90;;;;;;5094997;28;20615;-84
2022/06/06 04:16:37;;;;;;;1.37;1.27;;;13.90;99.90;;;;;;5094451;28;20629;-85
2022/06/06 04:19:14;;;;;;;1.63;1.40;;;14.00;99.90;;;;;;5109291;28;20639;-83
2022/06/06 04:21:50;;;;;;;2.50;2.10;;;14.00;99.90;;;;;;5101094;28;20682;-85
2022/06/06 04:24:40;;;;;;;2.07;1.30;;;14.10;99.90;;;;;;5101158;28;21161;-84
2022/06/06 04:27:17;;;;;;;2.47;1.33;;;14.20;99.90;;;;;;5097466;28;20768;-85
2022/06/06 04:29:53;;;;;;;1.10;1.00;;;14.30;99.90;;;;;;5099928;28;20714;-83
2022/06/06 04:32:29;;;;;;;1.87;1.30;;;14.30;99.90;;;;;;5094570;28;21245;-82
2022/06/06 04:35:08;;;;;;;1.40;1.23;;;14.40;99.90;;;;;;5100106;28;20626;-84
2022/06/06 04:37:41;;;;;;;1.20;1.10;;;14.30;99.90;;;;;;5093828;28;20722;-84
2022/06/06 04:40:17;;;;;;;2.00;1.50;;;14.50;99.90;;;;;;5090625;28;20814;-85
2022/06/06 04:42:53;;;;;;;1.30;1.20;;;14.50;99.90;;;;;;5104661;28;20614;-86
2022/06/06 04:45:29;;;;;;;1.97;1.47;;;14.70;99.90;;;;;;5101148;28;20727;-84
2022/06/06 04:47:57;;;;;;;2.13;1.23;;;14.80;99.90;;;;;;5092082;28;21208;-84
2022/06/06 04:50:24;;;;;;;2.40;1.23;;;14.90;99.90;;;;;;5089412;28;20697;-84
2022/06/06 04:52:54;;;;;;;1.60;1.50;;;14.90;99.90;;;;;;5106050;28;20710;-85
2022/06/06 04:55:22;;;;;;;1.00;0.60;;;14.90;99.90;;;;;;5107304;28;21080;-85
2022/06/06 04:57:54;;;;;;;1.50;1.40;;;15.00;99.90;;;;;;5107058;28;20627;-82
2022/06/06 05:00:21;;;;;;;1.77;1.63;;;15.10;99.90;;;;;;5107650;28;20676;-84
2022/06/06 05:02:48;;;;;;;1.60;1.50;;;15.10;99.90;;;;;;5089460;28;20635;-84
2022/06/06 05:05:15;;;;;;;1.57;1.27;;;15.20;99.90;;;;;;5092746;28;20722;-85
2022/06/06 05:08:05;;;;;;;1.27;1.17;;;15.20;99.90;;;;;;5108469;28;20627;-86
2022/06/06 05:10:45;;;;;;;1.53;1.43;;;15.30;99.90;;;;;;5101164;28;20719;-86
2022/06/06 05:13:37;;;;;;;1.60;1.50;;;15.40;99.90;;;;;;5096023;28;20620;-86
2022/06/06 05:16:17;;;;;;;2.83;2.00;;;15.50;99.90;;;;;;5099727;28;20659;-85
2022/06/06 05:19:02;;;;;;;1.27;1.17;;;15.70;99.90;;;;;;5095187;28;20628;-85
2022/06/06 05:21:52;;;;;;;2.00;1.80;;;15.80;99.90;;;;;;5088854;28;20656;-87
2022/06/06 05:24:52;;;;;;;1.63;1.47;;;16.00;99.90;;;;;;5107917;28;20623;-85
2022/06/06 05:27:34;;;;;;;1.40;1.30;;;16.00;99.90;;;;;;5105986;28;20631;-85
2022/06/06 05:30:13;;;;;;;1.10;1.10;;;15.90;99.90;;;;;;5108046;28;20618;-83
2022/06/06 05:33:00;;;;;;;1.70;1.60;;;15.90;99.90;;;;;;5089571;28;20616;-84
2022/06/06 05:35:54;;;;;;;1.43;1.00;;;16.00;99.90;;;;;;5099617;28;20623;-87
2022/06/06 05:38:36;;;;;;;1.43;1.33;;;15.90;99.90;;;;;;5097297;28;20624;-87
2022/06/06 05:41:13;;;;;;;1.60;1.50;;;16.00;99.90;;;;;;5097505;28;20741;-86
2022/06/06 05:43:48;;;;;;;0.90;0.90;;;16.00;99.90;;;;;;5097186;28;21063;-85
2022/06/06 05:46:31;;;;;;;1.50;1.40;;;16.10;99.90;;;;;;5094438;28;20647;-86
2022/06/06 05:49:16;;;;;;;1.90;1.60;;;16.20;99.90;;;;;;5091014;28;20620;-84
2022/06/06 05:51:51;;;;;;;1.70;1.60;;;16.30;99.90;;;;;;5087748;28;21224;-85
2022/06/06 05:54:37;;;;;;;1.53;1.43;;;16.60;99.90;;;;;;5099927;28;20659;-84
2022/06/06 05:57:22;;;;;;;1.73;1.63;;;16.50;99.90;;;;;;5087353;28;20626;-86
2022/06/06 06:00:16;;;;;;;1.40;1.27;;;16.50;99.90;;;;;;5106641;28;21236;-84
2022/06/06 06:03:15;;;;;;;1.77;1.67;;;16.50;99.90;;;;;;5106394;28;20651;-86
2022/06/06 06:05:56;;;;;;;1.67;1.57;;;16.60;99.90;;;;;;5086872;28;20621;-86
2022/06/06 06:08:33;;;;;;;1.47;1.37;;;16.70;99.90;;;;;;5093128;28;20630;-85
2022/06/06 06:11:12;;;;;;;1.70;1.60;;;16.70;99.90;;;;;;5088080;28;20648;-86
2022/06/06 06:13:50;;;;;;;1.27;1.17;;;16.80;99.90;;;;;;5098508;28;20619;-86
2022/06/06 06:16:19;;;;;;;2.53;2.00;;;16.90;99.90;;;;;;5087994;28;20624;-84
2022/06/06 06:18:53;;;;;;;1.40;1.30;;;16.90;99.90;;;;;;5088861;28;20634;-85
2022/06/06 06:21:24;;;;;;;1.60;1.47;;;17.00;99.90;;;;;;5091504;28;20679;-84
2022/06/06 06:23:55;;;;;;;2.83;2.37;;;17.00;99.90;;;;;;5099473;28;20662;-85
2022/06/06 06:26:22;;;;;;;1.50;1.40;;;17.10;99.90;;;;;;5087762;28;20628;-85
2022/06/06 06:28:50;;;;;;;1.10;1.10;;;17.30;99.90;;;;;;5092218;28;20715;-82
2022/06/06 06:31:36;;;;;;;1.57;1.47;;;17.30;99.90;;;;;;5091555;28;20624;-85
2022/06/06 06:34:17;;;;;;;1.60;1.50;;;17.40;99.90;;;;;;5094560;28;20620;-84
2022/06/06 06:36:46;;;;;;;1.37;1.27;;;17.50;99.90;;;;;;5096863;28;20675;-82
2022/06/06 06:39:45;;;;;;;1.60;1.50;;;17.50;99.90;;;;;;5106661;28;20975;-84
2022/06/06 06:42:27;;;;;;;1.80;1.70;;;17.50;99.90;;;;;;5110227;28;20671;-84
2022/06/06 06:44:56;;;;;;;2.20;1.83;;;17.50;99.90;;;;;;5109221;28;20665;-86
2022/06/06 06:47:29;;;;;;;2.10;1.90;;;17.60;99.90;;;;;;5102440;28;20628;-84
2022/06/06 06:50:07;;;;;;;2.17;2.07;;;17.70;99.90;;;;;;5091625;28;21271;-85
2022/06/06 06:52:52;;;;;;;2.10;1.80;;;17.80;99.90;;;;;;5094919;28;20616;-84
2022/06/06 06:55:29;;;;;;;1.57;1.47;;;17.80;99.90;;;;;;5103377;28;20655;-84
2022/06/06 06:58:24;;;;;;;1.67;1.57;;;17.80;99.90;;;;;;5110205;28;20724;-84
2022/06/06 07:00:56;;;;;;;1.77;1.67;;;17.90;99.90;;;;;;5109524;28;20624;-84
2022/06/06 07:09:47;;;;;;;1.77;1.67;;;18.30;99.90;;;;;;5103641;28;20210;-85
2022/06/06 07:12:29;;;;;;;1.50;1.40;;;18.50;99.90;;;;;;5090293;28;20648;-83
2022/06/06 07:15:18;;;;;;;1.60;1.47;;;18.50;99.90;;;;;;5099082;28;20655;-84
2022/06/06 07:17:49;;;;;;;2.17;1.50;;;18.40;99.90;;;;;;5100342;27;20723;-84
2022/06/06 07:20:17;;;;;;;1.60;1.50;;;18.50;99.90;;;;;;5091574;28;20620;-85
2022/06/06 07:23:03;;;;;;;1.47;1.37;;;18.50;99.90;;;;;;5090324;28;20986;-85
2022/06/06 07:25:36;;;;;;;1.90;1.70;;;18.50;99.90;;;;;;5095823;28;20688;-82
2022/06/06 07:28:04;;;;;;;1.63;1.53;;;18.50;99.90;;;;;;5095834;28;20719;-84
2022/06/06 07:30:37;;;;;;;1.20;1.20;;;18.60;99.90;;;;;;5107254;28;20655;-84
2022/06/06 07:33:39;;;;;;;1.70;1.60;;;18.60;99.90;;;;;;5108130;28;20627;-84
2022/06/06 07:36:17;;;;;;;1.30;1.20;;;18.60;99.90;;;;;;5090557;28;20688;-85
2022/06/06 07:38:58;;;;;;;1.50;1.33;;;18.80;99.90;;;;;;5089140;28;20656;-84
2022/06/06 07:41:30;;;;;;;1.90;1.80;;;18.80;99.90;;;;;;5101797;28;20843;-84
2022/06/06 07:44:12;;;;;;;1.60;1.50;;;18.80;99.90;;;;;;5105864;28;20314;-84
2022/06/06 07:46:53;;;;;;;1.87;1.53;;;18.90;99.90;;;;;;5106490;28;21003;-83
2022/06/06 07:49:24;;;;;;;1.40;1.30;;;19.10;99.90;;;;;;5109504;28;20672;-85
2022/06/06 07:51:59;;;;;;;1.87;1.60;;;19.30;99.90;;;;;;5110060;28;20623;-84
2022/06/06 07:54:42;;;;;;;1.57;1.47;;;19.60;99.90;;;;;;5092383;28;20615;-83
2022/06/06 07:57:19;;;;;;;1.20;1.10;;;19.80;99.80;;;;;;5086839;28;20615;-85
2022/06/06 07:59:55;;;;;;;1.60;1.50;;;19.70;98.80;;;;;;5087056;28;20746;-87
2022/06/06 08:02:49;;;;;;;2.40;1.63;;;19.70;98.10;;;;;;5088252;28;20754;-86
2022/06/06 08:05:30;;;;;;;2.00;1.80;;;19.70;98.30;;;;;;5087720;28;20647;-84
2022/06/06 08:08:07;;;;;;;1.40;1.30;;;19.60;98.20;;;;;;5088047;28;20624;-85
2022/06/06 08:10:40;;;;;;;1.80;1.70;;;19.60;98.90;;;;;;5087995;28;20630;-85
2022/06/06 08:13:25;;;;;;;1.80;1.70;;;19.50;98.20;;;;;;5089082;28;20627;-85
2022/06/06 08:16:06;;;;;;;1.53;1.40;;;19.50;98.30;;;;;;5089341;28;20601;-85
2022/06/06 08:18:48;;;;;;;1.40;1.30;;;19.50;97.80;;;;;;5089072;28;20671;-86
2022/06/06 08:21:22;;;;;;;1.53;1.23;;;19.80;97.60;;;;;;5088960;28;21209;-86
2022/06/06 08:23:52;;;;;;;1.20;1.10;;;19.90;96.40;;;;;;5089168;28;20669;-85
2022/06/06 08:26:21;;;;;;;1.40;1.30;;;19.90;96.40;;;;;;5088683;28;20626;-86
2022/06/06 08:28:51;;;;;;;1.90;1.80;;;20.50;97.40;;;;;;5088848;28;20711;-86
2022/06/06 08:31:18;;;;;;;1.37;1.27;;;20.30;95.60;;;;;;5089065;28;20758;-85
2022/06/06 08:33:46;;;;;;;2.00;1.90;;;20.50;95.30;;;;;;5102909;28;20991;-86
2022/06/06 08:36:51;;;;;;;1.63;1.50;;;20.60;96.00;;;;;;5108996;28;21196;-85
2022/06/06 08:39:25;;;;;;;1.27;1.17;;;20.70;94.90;;;;;;5098490;27;20690;-85
2022/06/06 08:42:13;;;;;;;1.77;1.67;;;21.00;94.70;;;;;;5105967;28;20646;-85
2022/06/06 08:45:07;;;;;;;1.10;1.00;;;20.90;94.20;;;;;;5107908;28;20668;-86
2022/06/06 08:47:52;;;;;;;1.70;1.60;;;21.10;94.70;;;;;;5088041;28;20672;-86
2022/06/06 08:50:54;;;;;;;3.30;1.80;;;21.30;93.40;;;;;;5087950;28;20723;-86
2022/06/06 08:53:56;;;;;;;1.47;1.37;;;21.60;92.20;;;;;;5088900;28;20648;-84
2022/06/06 08:56:53;;;;;;;0.73;0.70;;;21.60;90.00;;;;;;5088590;28;20600;-85
2022/06/06 08:59:55;;;;;;;2.10;1.10;;;21.50;89.30;;;;;;5088843;28;20624;-86
2022/06/06 09:02:54;;;;;;;0.97;0.97;;;21.70;89.60;;;;;;5088580;28;20687;-85
2022/06/06 09:06:02;;;;;;;1.10;1.00;;;21.70;89.80;;;;;;5088353;28;20709;-87
2022/06/06 09:09:14;;;;;;;1.03;1.03;;;21.60;87.70;;;;;;5088530;28;20644;-87
2022/06/06 09:12:23;;;;;;;1.33;1.23;;;21.60;85.10;;;;;;5088608;28;20616;-86
2022/06/06 09:15:27;;;;;;;1.03;0.90;;;21.80;87.70;;;;;;5088772;28;20740;-86
2022/06/06 09:18:31;;;;;;;0.80;0.80;;;21.80;88.40;;;;;;5088787;28;20718;-87
2022/06/06 09:21:30;;;;;;;0.90;0.90;;;21.50;85.70;;;;;;5088355;28;20708;-87
2022/06/06 09:24:43;;;;;;;1.30;1.13;;;21.60;87.10;;;;;;5088470;28;20747;-87
2022/06/06 09:27:42;;;;;;;1.80;0.97;;;21.50;85.40;;;;;;5087969;28;20616;-86
2022/06/06 09:30:19;;;;;;;1.00;1.00;;;21.60;88.50;;;;;;5087896;28;20642;-87
2022/06/06 09:33:18;;;;;;;1.17;1.17;;;21.80;88.80;;;;;;5088333;28;20652;-87
2022/06/06 09:35:59;;;;;;;1.07;1.07;;;22.00;83.20;;;;;;5088238;28;20623;-87
2022/06/06 09:38:45;;;;;;;1.10;0.97;;;22.20;79.90;;;;;;5104280;28;20681;-85
2022/06/06 09:41:29;;;;;;;1.00;1.00;;;22.10;79.40;;;;;;5099792;28;20635;-86
2022/06/06 09:43:58;;;;;;;0.90;0.90;;;22.30;81.80;;;;;;5108165;28;20758;-86
2022/06/06 09:47:13;;;;;;;1.17;1.10;;;22.40;80.20;;;;;;5092823;28;20620;-87
2022/06/06 09:50:12;;;;;;;1.60;0.90;;;22.60;80.00;;;;;;5025120;28;21076;-85
2022/06/06 09:53:26;;;;;;;1.00;0.90;;;22.30;79.50;;;;;;5019063;28;21299;-86
2022/06/06 09:59:39;;;;;;;1.00;1.00;;;22.00;78.20;;;;;;5088060;28;20636;-86
2022/06/06 10:02:46;;;;;;;0.77;0.77;;;22.40;80.80;;;;;;5088710;28;20717;-85
2022/06/06 10:05:58;;;;;;;0.80;0.80;;;22.80;78.40;;;;;;5091684;28;20651;-85
2022/06/06 10:09:14;;;;;;;1.00;1.00;;;22.50;77.10;;;;;;5092140;28;20612;-85
2022/06/06 10:12:15;;;;;;;0.97;0.97;;;22.30;77.30;;;;;;5091689;28;20677;-87
2022/06/06 10:15:02;;;;;;;1.30;1.20;;;22.50;79.00;;;;;;5091754;28;21097;-86
2022/06/06 10:17:46;;;;;;;1.37;1.27;;;22.80;78.70;;;;;;5091436;28;20612;-87
2022/06/06 10:20:35;;;;;;;1.37;1.27;;;23.10;78.10;;;;;;5091460;28;20678;-86
2022/06/06 10:23:24;;;;;;;1.40;1.30;;;23.30;80.60;;;;;;5091303;28;21519;-86
2022/06/06 10:26:33;;;;;;;0.97;0.93;;;23.40;76.30;;;;;;5091608;28;20842;-86
2022/06/06 10:29:20;;;;;;;1.30;1.10;;;23.40;78.60;;;;;;5028372;28;20696;-88
2022/06/06 10:32:02;;;;;;;2.50;1.20;;;23.80;77.50;;;;;;5090227;28;20668;-86
2022/06/06 10:34:57;;;;;;;1.60;1.50;;;23.80;75.00;;;;;;5091424;28;20620;-86
2022/06/06 10:37:44;;;;;;;1.47;1.37;;;24.20;76.10;;;;;;5101146;28;20668;-86
2022/06/06 10:40:45;;;;;;;1.70;1.60;;;24.20;75.60;;;;;;5097045;28;20615;-86
2022/06/06 10:43:36;;;;;;;1.07;1.07;;;23.80;76.80;;;;;;5111240;28;21340;-85
2022/06/06 10:46:10;;;;;;;1.17;1.07;;;23.20;76.90;;;;;;5098885;28;20624;-86
2022/06/06 10:48:59;;;;;;;1.40;1.30;;;23.20;77.10;;;;;;5090989;28;21035;-87
2022/06/06 10:52:04;;;;;;;1.50;1.40;;;23.10;78.40;;;;;;5090928;28;20713;-86
2022/06/06 10:55:28;;;;;;;0.90;0.90;;;23.00;72.30;;;;;;5090680;28;20615;-87
2022/06/06 10:58:21;;;;;;;1.20;1.20;;;23.00;76.20;;;;;;5027750;28;20615;-86
2022/06/06 11:01:18;;;;;;;1.30;1.13;;;23.20;77.60;;;;;;5086505;28;20755;-86
2022/06/06 11:04:13;;;;;;;1.20;1.10;;;23.70;75.60;;;;;;5090777;28;20763;-88
2022/06/06 11:07:22;;;;;;;1.10;1.10;;;24.40;74.20;;;;;;5077715;28;20636;-86
2022/06/06 11:10:14;;;;;;;1.33;1.23;;;23.60;71.00;;;;;;5090786;28;20654;-84
2022/06/06 11:13:00;;;;;;;1.20;1.20;;;23.50;73.60;;;;;;5090170;28;20722;-85
2022/06/06 11:15:37;;;;;;;1.17;1.17;;;23.40;77.50;;;;;;5089142;28;20612;-86
2022/06/06 11:18:27;;;;;;;1.40;1.30;;;23.50;71.10;;;;;;5089032;28;21244;-86
2022/06/06 11:21:26;;;;;;;1.33;1.23;;;23.50;75.00;;;;;;5090914;28;20628;-85
2022/06/06 11:24:02;;;;;;;1.17;1.07;;;23.50;73.30;;;;;;5090125;28;20655;-86
2022/06/06 11:26:57;;;;;;;0.80;0.80;;;23.30;74.90;;;;;;5090258;28;20699;-84
2022/06/06 11:29:58;;;;;;;1.20;1.10;;;23.10;74.70;;;;;;5090270;28;21062;-87
2022/06/06 11:32:57;;;;;;;1.50;1.13;;;22.90;76.30;;;;;;5074509;28;20739;-85
2022/06/06 11:35:29;;;;;;;1.07;1.00;;;22.80;78.20;;;;;;5089834;28;20620;-86
2022/06/06 11:38:24;;;;;;;1.40;1.30;;;22.60;72.60;;;;;;5105200;28;20624;-84
2022/06/06 11:41:11;;;;;;;1.57;1.10;;;22.40;74.00;;;;;;5098582;28;20619;-84
2022/06/06 11:44:12;;;;;;;0.90;0.90;;;22.50;77.00;;;;;;5109312;28;20687;-85
2022/06/06 11:47:20;;;;;;;1.17;0.97;;;22.70;74.90;;;;;;5029366;28;20630;-84
2022/06/06 11:50:29;;;;;;;1.03;1.03;;;22.70;76.20;;;;;;5089492;28;20627;-83
2022/06/06 11:53:44;;;;;;;1.13;1.10;;;22.50;73.60;;;;;;5089487;28;20735;-85
2022/06/06 11:56:24;;;;;;;1.17;1.10;;;22.30;72.60;;;;;;5089662;28;20727;-84
2022/06/06 11:59:30;;;;;;;1.30;1.17;;;22.20;71.80;;;;;;5089685;28;20681;-84
2022/06/06 12:02:30;;;;;;;0.93;0.73;;;22.40;73.00;;;;;;5089592;28;20611;-83
2022/06/06 12:05:41;;;;;;;1.10;1.10;;;22.40;72.50;;;;;;5089583;28;20663;-85
2022/06/06 12:08:37;;;;;;;1.00;1.00;;;22.20;70.00;;;;;;5089745;28;20608;-86
2022/06/06 12:11:49;;;;;;;1.00;0.90;;;21.90;70.40;;;;;;5089446;28;21305;-85
2022/06/06 12:14:50;;;;;;;1.10;1.10;;;22.00;72.70;;;;;;5073741;28;21435;-87
2022/06/06 12:17:35;;;;;;;1.30;1.20;;;21.80;73.40;;;;;;5089348;28;20669;-87
2022/06/06 12:20:38;;;;;;;1.43;1.10;;;21.70;73.00;;;;;;5089052;28;20724;-84
2022/06/06 12:23:15;;;;;;;1.13;1.07;;;21.70;73.20;;;;;;5088960;28;20751;-84
2022/06/06 12:26:06;;;;;;;1.10;1.00;;;21.70;74.40;;;;;;5088020;28;21237;-84
2022/06/06 12:29:12;;;;;;;1.10;1.10;;;21.80;70.00;;;;;;5089089;28;20677;-85
2022/06/06 12:32:05;;;;;;;2.50;1.40;;;23.40;76.40;;;;;;5089269;28;20616;-83
2022/06/06 12:34:39;;;;;;;5.77;1.37;;;25.90;67.40;;;;;;5088814;28;20620;-85
2022/06/06 12:37:11;;;;;;;0.93;0.93;;;27.70;66.00;;;;;;5096985;28;20619;-85
2022/06/06 12:39:50;;;;;;;0.87;0.87;;;29.00;59.20;;;;;;5095651;27;21261;-83
2022/06/06 12:42:26;;;;;;;1.27;1.07;;;29.70;55.70;;;;;;5088672;28;20620;-86
2022/06/06 12:45:29;;;;;;;0.93;0.93;;;29.50;55.10;;;;;;5091064;28;20725;-85
2022/06/06 12:48:28;;;;;;;1.40;1.30;;;29.40;56.10;;;;;;5109364;28;20635;-85
2022/06/06 12:51:02;;;;;;;1.30;1.20;;;30.00;56.20;;;;;;5087437;28;20661;-85
2022/06/06 12:53:56;;;;;;;1.00;0.90;;;30.80;51.70;;;;;;5108835;28;20714;-86
2022/06/06 12:56:39;;;;;;;1.23;1.00;;;31.50;53.10;;;;;;5098423;28;20632;-86
2022/06/06 12:59:31;;;;;;;0.77;0.77;;;31.10;54.20;;;;;;5108906;28;20680;-83
2022/06/06 13:02:03;;;;;;;1.43;1.20;;;32.00;50.60;;;;;;5095688;28;20639;-86
2022/06/06 13:04:59;;;;;;;1.10;1.10;;;32.90;48.20;;;;;;5108857;28;20674;-85
2022/06/06 13:07:38;;;;;;;1.10;1.10;;;32.80;49.20;;;;;;5108846;28;20698;-85
2022/06/06 13:10:15;;;;;;;0.97;0.97;;;31.00;49.00;;;;;;5108325;28;20731;-85
2022/06/06 13:13:09;;;;;;;1.20;1.20;;;29.40;48.40;;;;;;5108912;28;21261;-85
2022/06/06 13:15:42;;;;;;;1.23;1.17;;;28.40;51.60;;;;;;5108726;28;20615;-85
2022/06/06 13:18:32;;;;;;;1.20;1.10;;;27.20;54.60;;;;;;5108661;28;20635;-85
2022/06/06 13:21:09;;;;;;;1.40;1.30;;;26.60;54.40;;;;;;5108660;28;21140;-85
2022/06/06 13:23:53;;;;;;;1.07;1.07;;;25.80;53.90;;;;;;5108337;28;20758;-85
2022/06/06 13:26:34;;;;;;;0.90;0.90;;;25.30;58.00;;;;;;5108384;28;20668;-83
2022/06/06 13:29:01;;;;;;;1.10;1.00;;;24.90;57.70;;;;;;5108591;28;21057;-83
2022/06/06 13:31:37;;;;;;;2.00;1.20;;;24.50;56.50;;;;;;5108604;28;20726;-83
2022/06/06 13:34:15;;;;;;;0.90;0.90;;;24.10;57.70;;;;;;5108656;28;20619;-84
2022/06/06 13:37:03;;;;;;;0.90;0.90;;;23.50;58.60;;;;;;5110405;28;20626;-83
2022/06/06 13:39:50;;;;;;;1.33;1.20;;;23.00;60.50;;;;;;5100127;28;21178;-83
2022/06/06 13:42:29;;;;;;;1.80;1.50;;;22.70;62.30;;;;;;5092283;28;21261;-83
2022/06/06 13:45:20;;;;;;;1.13;1.03;;;22.60;62.60;;;;;;5094963;28;21262;-83
2022/06/06 13:48:27;;;;;;;1.43;1.03;;;22.30;62.70;;;;;;5112880;28;20718;-83
2022/06/06 13:51:06;;;;;;;3.23;1.10;;;22.10;63.70;;;;;;5103837;28;20684;-86
2022/06/06 13:53:50;;;;;;;1.23;1.23;;;22.20;62.90;;;;;;5112281;28;20626;-85
2022/06/06 13:56:38;;;;;;;0.77;0.77;;;22.00;62.70;;;;;;5112460;28;20611;-85
2022/06/06 13:59:15;;;;;;;1.10;1.00;;;22.00;64.70;;;;;;5112527;28;21334;-86
2022/06/06 14:01:50;;;;;;;1.27;0.97;;;22.00;66.30;;;;;;5112033;28;20643;-84
2022/06/06 14:04:48;;;;;;;1.10;1.00;;;21.90;66.00;;;;;;5112016;28;20656;-86
2022/06/06 14:07:31;;;;;;;1.20;1.10;;;21.90;65.50;;;;;;5112163;28;20620;-86
2022/06/06 14:10:05;;;;;;;1.17;1.07;;;21.90;68.60;;;;;;5112331;28;20704;-85
2022/06/06 14:12:46;;;;;;;1.17;1.17;;;21.80;64.60;;;;;;5111783;28;20633;-85
2022/06/06 14:15:15;;;;;;;1.43;1.33;;;21.70;66.80;;;;;;5111873;28;20672;-86
2022/06/06 14:17:49;;;;;;;1.93;1.50;;;21.50;69.20;;;;;;5112123;28;20665;-86
2022/06/06 14:20:20;;;;;;;1.50;1.37;;;21.40;67.10;;;;;;5112090;28;20722;-86
2022/06/06 14:22:48;;;;;;;1.33;1.23;;;21.40;67.70;;;;;;5111556;28;20650;-86